PWSweather.com
Personal Weather Stations
Station Observations
KMNGREYC2
Grey Cloud Island, Grey Cloud Island, MN 55071

Grey Cloud IslandGrey Cloud Island, MN 55071

Lat: 44.799333, Lon: -92.987851

Elevation: 700

Station Type: Davis VP2

www.jagielski.com/weather/conditions.htm

High Low Average
Temperature 18.2°F-7.7°C 7.8°F-13.4°C 12.2°F-11.0°C
Dew Point 5.5°F-14.7°C 0.4°F-17.6°C 3.3°F-15.9°C
Winds 13.0 mph 20.9 kmh Calm Calm 3.0 mph WNW4.8 kmh WNW
Wind Gusts 18.0 mph29.0 kmh -- 11.0 mph17.7 kmh
Humidity 75% 57% 67%
Pressure 30.49 in1032.5 mb 30.23 in1023.7 mb -
Precipitation 0.00 in0.0 mm - -
Hour Temp Dew Point Humidity Winds Wind Gusts Pressure Precip Precip Rate Daily Precip Total
12:00 AM 13.6°F-10.2°C 5.0°F-15.0°C 68% 4.0 mph NW6.4 kmh NW 15.0 mph24.1 kmh 30.22 in1023.4 mb 0.00 in0.0 mm 0.00 in0.0 mm 0.00 in0.0 mm
12:15 AM 13.5°F-10.3°C 5.2°F-14.9°C 69% 2.0 mph NW3.2 kmh NW 15.0 mph24.1 kmh 30.22 in1023.4 mb 0.00 in0.0 mm 0.00 in0.0 mm 0.00 in0.0 mm
12:30 AM 13.3°F-10.4°C 5.1°F-14.9°C 69% 3.0 mph NW4.8 kmh NW 15.0 mph24.1 kmh 30.22 in1023.4 mb 0.00 in0.0 mm 0.00 in0.0 mm 0.00 in0.0 mm
12:45 AM 13.0°F-10.6°C 4.4°F-15.3°C 68% Calm Calm 15.0 mph24.1 kmh 30.23 in1023.7 mb 0.00 in0.0 mm 0.00 in0.0 mm 0.00 in0.0 mm
01:00 AM 12.8°F-10.7°C 4.6°F-15.2°C 69% 6.0 mph WNW9.7 kmh WNW 15.0 mph24.1 kmh 30.23 in1023.7 mb 0.00 in0.0 mm 0.00 in0.0 mm 0.00 in0.0 mm
01:15 AM 12.5°F-10.8°C 4.3°F-15.4°C 69% 10.0 mph W16.1 kmh W 10.0 mph16.1 kmh 30.23 in1023.7 mb 0.00 in0.0 mm 0.00 in0.0 mm 0.00 in0.0 mm
01:30 AM 12.3°F-10.9°C 4.1°F-15.5°C 69% 7.0 mph W11.3 kmh W 13.0 mph20.9 kmh 30.24 in1024.0 mb 0.00 in0.0 mm 0.00 in0.0 mm 0.00 in0.0 mm
01:45 AM 12.1°F-11.1°C 3.9°F-15.6°C 69% 10.0 mph W16.1 kmh W 18.0 mph29.0 kmh 30.25 in1024.4 mb 0.00 in0.0 mm 0.00 in0.0 mm 0.00 in0.0 mm
02:00 AM 12.0°F-11.1°C 4.1°F-15.5°C 70% 4.0 mph NW6.4 kmh NW 18.0 mph29.0 kmh 30.25 in1024.4 mb 0.00 in0.0 mm 0.00 in0.0 mm 0.00 in0.0 mm
02:15 AM 11.8°F-11.2°C 3.6°F-15.8°C 69% Calm Calm 15.0 mph24.1 kmh 30.25 in1024.4 mb 0.00 in0.0 mm 0.00 in0.0 mm 0.00 in0.0 mm
02:30 AM 11.6°F-11.3°C 3.4°F-15.9°C 69% 4.0 mph NW6.4 kmh NW 15.0 mph24.1 kmh 30.26 in1024.7 mb 0.00 in0.0 mm 0.00 in0.0 mm 0.00 in0.0 mm
02:45 AM 11.5°F-11.4°C 3.6°F-15.8°C 70% 2.0 mph NW3.2 kmh NW 11.0 mph17.7 kmh 30.27 in1025.1 mb 0.00 in0.0 mm 0.00 in0.0 mm 0.00 in0.0 mm
03:00 AM 11.3°F-11.5°C 3.1°F-16.1°C 69% 6.0 mph NNW9.7 kmh NNW 15.0 mph24.1 kmh 30.28 in1025.4 mb 0.00 in0.0 mm 0.00 in0.0 mm 0.00 in0.0 mm
03:15 AM 11.1°F-11.6°C 2.9°F-16.2°C 69% 3.0 mph NW4.8 kmh NW 16.0 mph25.7 kmh 30.28 in1025.4 mb 0.00 in0.0 mm 0.00 in0.0 mm 0.00 in0.0 mm
03:30 AM 11.0°F-11.7°C 3.2°F-16.0°C 70% 5.0 mph WNW8.0 kmh WNW 16.0 mph25.7 kmh 30.29 in1025.7 mb 0.00 in0.0 mm 0.00 in0.0 mm 0.00 in0.0 mm
03:45 AM 10.9°F-11.7°C 3.1°F-16.1°C 70% 9.0 mph W14.5 kmh W 11.0 mph17.7 kmh 30.30 in1026.1 mb 0.00 in0.0 mm 0.00 in0.0 mm 0.00 in0.0 mm
04:00 AM 10.7°F-11.8°C 2.9°F-16.2°C 70% 12.0 mph WNW19.3 kmh WNW 13.0 mph20.9 kmh 30.30 in1026.1 mb 0.00 in0.0 mm 0.00 in0.0 mm 0.00 in0.0 mm
04:15 AM 10.6°F-11.9°C 2.8°F-16.2°C 70% 13.0 mph W20.9 kmh W 16.0 mph25.7 kmh 30.32 in1026.8 mb 0.00 in0.0 mm 0.00 in0.0 mm 0.00 in0.0 mm
04:30 AM 10.4°F-12.0°C 2.3°F-16.5°C 69% 2.0 mph W3.2 kmh W 16.0 mph25.7 kmh 30.32 in1026.8 mb 0.00 in0.0 mm 0.00 in0.0 mm 0.00 in0.0 mm
04:45 AM 10.3°F-12.1°C 2.5°F-16.4°C 70% 4.0 mph WNW6.4 kmh WNW 12.0 mph19.3 kmh 30.33 in1027.1 mb 0.00 in0.0 mm 0.00 in0.0 mm 0.00 in0.0 mm
05:00 AM 10.2°F-12.1°C 2.4°F-16.4°C 70% 1.0 mph W1.6 kmh W 14.0 mph22.5 kmh 30.32 in1026.8 mb 0.00 in0.0 mm 0.00 in0.0 mm 0.00 in0.0 mm
05:15 AM 10.1°F-12.2°C 2.3°F-16.5°C 70% 3.0 mph NW4.8 kmh NW 12.0 mph19.3 kmh 30.33 in1027.1 mb 0.00 in0.0 mm 0.00 in0.0 mm 0.00 in0.0 mm
05:30 AM 9.9°F-12.3°C 2.1°F-16.6°C 70% 6.0 mph WSW9.7 kmh WSW 12.0 mph19.3 kmh 30.34 in1027.4 mb 0.00 in0.0 mm 0.00 in0.0 mm 0.00 in0.0 mm
05:45 AM 9.8°F-12.3°C 1.7°F-16.8°C 69% Calm Calm 15.0 mph24.1 kmh 30.33 in1027.1 mb 0.00 in0.0 mm 0.00 in0.0 mm 0.00 in0.0 mm
06:00 AM 9.7°F-12.4°C 1.9°F-16.7°C 70% 2.0 mph WNW3.2 kmh WNW 15.0 mph24.1 kmh 30.33 in1027.1 mb 0.00 in0.0 mm 0.00 in0.0 mm 0.00 in0.0 mm
06:15 AM 9.6°F-12.4°C 1.8°F-16.8°C 70% 2.0 mph NW3.2 kmh NW 13.0 mph20.9 kmh 30.34 in1027.4 mb 0.00 in0.0 mm 0.00 in0.0 mm 0.00 in0.0 mm
06:30 AM 9.5°F-12.5°C 1.7°F-16.8°C 70% 4.0 mph W6.4 kmh W 13.0 mph20.9 kmh 30.34 in1027.4 mb 0.00 in0.0 mm 0.00 in0.0 mm 0.00 in0.0 mm
06:45 AM 9.3°F-12.6°C 1.2°F-17.1°C 69% 5.0 mph WNW8.0 kmh WNW 15.0 mph24.1 kmh 30.35 in1027.8 mb 0.00 in0.0 mm 0.00 in0.0 mm 0.00 in0.0 mm
07:00 AM 9.2°F-12.7°C 1.4°F-17.0°C 70% 1.0 mph WNW1.6 kmh WNW 15.0 mph24.1 kmh 30.36 in1028.1 mb 0.00 in0.0 mm 0.00 in0.0 mm 0.00 in0.0 mm
07:15 AM 9.2°F-12.7°C 1.4°F-17.0°C 70% 4.0 mph NNE6.4 kmh NNE 12.0 mph19.3 kmh 30.37 in1028.4 mb 0.00 in0.0 mm 0.00 in0.0 mm 0.00 in0.0 mm
07:30 AM 8.9°F-12.8°C 1.1°F-17.2°C 70% 4.0 mph NW6.4 kmh NW 17.0 mph27.4 kmh 30.37 in1028.4 mb 0.00 in0.0 mm 0.00 in0.0 mm 0.00 in0.0 mm
07:45 AM 8.7°F-12.9°C 0.9°F-17.3°C 70% 3.0 mph WNW4.8 kmh WNW 12.0 mph19.3 kmh 30.38 in1028.8 mb 0.00 in0.0 mm 0.00 in0.0 mm 0.00 in0.0 mm
08:00 AM 8.6°F-13.0°C 1.1°F-17.2°C 71% 3.0 mph WNW4.8 kmh WNW 12.0 mph19.3 kmh 30.39 in1029.1 mb 0.00 in0.0 mm 0.00 in0.0 mm 0.00 in0.0 mm
08:15 AM 8.4°F-13.1°C 0.6°F-17.4°C 70% 5.0 mph WNW8.0 kmh WNW 16.0 mph25.7 kmh 30.39 in1029.1 mb 0.00 in0.0 mm 0.00 in0.0 mm 0.00 in0.0 mm
08:30 AM 8.1°F-13.3°C 0.4°F-17.6°C 70% 3.0 mph NW4.8 kmh NW 16.0 mph25.7 kmh 30.39 in1029.1 mb 0.00 in0.0 mm 0.00 in0.0 mm 0.00 in0.0 mm
08:45 AM 8.0°F-13.3°C 0.6°F-17.4°C 71% 4.0 mph NW6.4 kmh NW 12.0 mph19.3 kmh 30.41 in1029.8 mb 0.00 in0.0 mm 0.00 in0.0 mm 0.00 in0.0 mm
09:00 AM 7.9°F-13.4°C 0.5°F-17.5°C 71% 3.0 mph NW4.8 kmh NW 12.0 mph19.3 kmh 30.42 in1030.1 mb 0.00 in0.0 mm 0.00 in0.0 mm 0.00 in0.0 mm
09:15 AM 7.8°F-13.4°C 0.4°F-17.6°C 71% 4.0 mph NW6.4 kmh NW 16.0 mph25.7 kmh 30.42 in1030.1 mb 0.00 in0.0 mm 0.00 in0.0 mm 0.00 in0.0 mm
09:30 AM 7.8°F-13.4°C 0.4°F-17.6°C 71% 9.0 mph W14.5 kmh W 16.0 mph25.7 kmh 30.43 in1030.5 mb 0.00 in0.0 mm 0.00 in0.0 mm 0.00 in0.0 mm
09:45 AM 7.9°F-13.4°C 0.5°F-17.5°C 71% 8.0 mph WNW12.9 kmh WNW 14.0 mph22.5 kmh 30.43 in1030.5 mb 0.00 in0.0 mm 0.00 in0.0 mm 0.00 in0.0 mm
10:00 AM 8.1°F-13.3°C 0.7°F-17.4°C 71% 1.0 mph NNW1.6 kmh NNW 14.0 mph22.5 kmh 30.43 in1030.5 mb 0.00 in0.0 mm 0.00 in0.0 mm 0.00 in0.0 mm
10:15 AM 8.2°F-13.2°C 0.5°F-17.5°C 70% 4.0 mph NNW6.4 kmh NNW 14.0 mph22.5 kmh 30.44 in1030.8 mb 0.00 in0.0 mm 0.00 in0.0 mm 0.00 in0.0 mm
10:30 AM 8.6°F-13.0°C 0.8°F-17.3°C 70% 3.0 mph ENE4.8 kmh ENE 14.0 mph22.5 kmh 30.44 in1030.8 mb 0.00 in0.0 mm 0.00 in0.0 mm 0.00 in0.0 mm
10:45 AM 9.3°F-12.6°C 1.2°F-17.1°C 69% 4.0 mph NW6.4 kmh NW 11.0 mph17.7 kmh 30.45 in1031.2 mb 0.00 in0.0 mm 0.00 in0.0 mm 0.00 in0.0 mm
11:00 AM 9.6°F-12.4°C 1.2°F-17.1°C 68% 4.0 mph WNW6.4 kmh WNW 13.0 mph20.9 kmh 30.46 in1031.5 mb 0.00 in0.0 mm 0.00 in0.0 mm 0.00 in0.0 mm
11:15 AM 10.1°F-12.2°C 2.0°F-16.7°C 69% 4.0 mph NW6.4 kmh NW 13.0 mph20.9 kmh 30.46 in1031.5 mb 0.00 in0.0 mm 0.00 in0.0 mm 0.00 in0.0 mm
11:30 AM 10.6°F-11.9°C 1.5°F-16.9°C 66% 4.0 mph WNW6.4 kmh WNW 14.0 mph22.5 kmh 30.47 in1031.8 mb 0.00 in0.0 mm 0.00 in0.0 mm 0.00 in0.0 mm
11:45 AM 11.5°F-11.4°C 2.0°F-16.7°C 65% 6.0 mph WNW9.7 kmh WNW 13.0 mph20.9 kmh 30.47 in1031.8 mb 0.00 in0.0 mm 0.00 in0.0 mm 0.00 in0.0 mm
12:00 PM 12.0°F-11.1°C 2.2°F-16.6°C 64% 2.0 mph W3.2 kmh W 13.0 mph20.9 kmh 30.47 in1031.8 mb 0.00 in0.0 mm 0.00 in0.0 mm 0.00 in0.0 mm
12:15 PM 12.2°F-11.0°C 2.0°F-16.7°C 63% 5.0 mph W8.0 kmh W 14.0 mph22.5 kmh 30.47 in1031.8 mb 0.00 in0.0 mm 0.00 in0.0 mm 0.00 in0.0 mm
12:30 PM 12.6°F-10.8°C 2.4°F-16.4°C 63% 8.0 mph W12.9 kmh W 14.0 mph22.5 kmh 30.46 in1031.5 mb 0.00 in0.0 mm 0.00 in0.0 mm 0.00 in0.0 mm
12:45 PM 13.0°F-10.6°C 2.8°F-16.2°C 63% 1.0 mph NNW1.6 kmh NNW 12.0 mph19.3 kmh 30.46 in1031.5 mb 0.00 in0.0 mm 0.00 in0.0 mm 0.00 in0.0 mm
01:00 PM 13.1°F-10.5°C 2.2°F-16.6°C 61% 2.0 mph N3.2 kmh N 15.0 mph24.1 kmh 30.46 in1031.5 mb 0.00 in0.0 mm 0.00 in0.0 mm 0.00 in0.0 mm
01:15 PM 13.3°F-10.4°C 2.4°F-16.4°C 61% 3.0 mph NW4.8 kmh NW 15.0 mph24.1 kmh 30.46 in1031.5 mb 0.00 in0.0 mm 0.00 in0.0 mm 0.00 in0.0 mm
01:30 PM 13.6°F-10.2°C 3.0°F-16.1°C 62% 2.0 mph WNW3.2 kmh WNW 15.0 mph24.1 kmh 30.45 in1031.2 mb 0.00 in0.0 mm 0.00 in0.0 mm 0.00 in0.0 mm
01:45 PM 13.9°F-10.1°C 3.3°F-15.9°C 62% 3.0 mph WNW4.8 kmh WNW 11.0 mph17.7 kmh 30.45 in1031.2 mb 0.00 in0.0 mm 0.00 in0.0 mm 0.00 in0.0 mm
02:00 PM 14.4°F-9.8°C 3.4°F-15.9°C 61% 5.0 mph NW8.0 kmh NW 12.0 mph19.3 kmh 30.44 in1030.8 mb 0.00 in0.0 mm 0.00 in0.0 mm 0.00 in0.0 mm
02:15 PM 15.1°F-9.4°C 3.7°F-15.7°C 60% 3.0 mph NE4.8 kmh NE 13.0 mph20.9 kmh 30.43 in1030.5 mb 0.00 in0.0 mm 0.00 in0.0 mm 0.00 in0.0 mm
02:30 PM 15.7°F-9.1°C 4.3°F-15.4°C 60% 6.0 mph WNW9.7 kmh WNW 13.0 mph20.9 kmh 30.43 in1030.5 mb 0.00 in0.0 mm 0.00 in0.0 mm 0.00 in0.0 mm
02:45 PM 16.4°F-8.7°C 4.6°F-15.2°C 59% 4.0 mph WNW6.4 kmh WNW 13.0 mph20.9 kmh 30.43 in1030.5 mb 0.00 in0.0 mm 0.00 in0.0 mm 0.00 in0.0 mm
03:00 PM 16.9°F-8.4°C 4.7°F-15.2°C 58% 3.0 mph WNW4.8 kmh WNW 13.0 mph20.9 kmh 30.43 in1030.5 mb 0.00 in0.0 mm 0.00 in0.0 mm 0.00 in0.0 mm
03:15 PM 17.3°F-8.2°C 5.1°F-14.9°C 58% Calm Calm 11.0 mph17.7 kmh 30.43 in1030.5 mb 0.00 in0.0 mm 0.00 in0.0 mm 0.00 in0.0 mm
03:30 PM 17.7°F-7.9°C 5.1°F-14.9°C 57% 3.0 mph WNW4.8 kmh WNW 11.0 mph17.7 kmh 30.44 in1030.8 mb 0.00 in0.0 mm 0.00 in0.0 mm 0.00 in0.0 mm
03:45 PM 17.9°F-7.8°C 5.3°F-14.8°C 57% 4.0 mph WNW6.4 kmh WNW 10.0 mph16.1 kmh 30.44 in1030.8 mb 0.00 in0.0 mm 0.00 in0.0 mm 0.00 in0.0 mm
04:00 PM 18.0°F-7.8°C 5.4°F-14.8°C 57% 3.0 mph W4.8 kmh W 12.0 mph19.3 kmh 30.44 in1030.8 mb 0.00 in0.0 mm 0.00 in0.0 mm 0.00 in0.0 mm
04:15 PM 18.2°F-7.7°C 5.5°F-14.7°C 57% 5.0 mph W8.0 kmh W 8.0 mph12.9 kmh 30.43 in1030.5 mb 0.00 in0.0 mm 0.00 in0.0 mm 0.00 in0.0 mm
04:30 PM 18.2°F-7.7°C 5.5°F-14.7°C 57% 4.0 mph NW6.4 kmh NW 8.0 mph12.9 kmh 30.44 in1030.8 mb 0.00 in0.0 mm 0.00 in0.0 mm 0.00 in0.0 mm
04:45 PM 17.5°F-8.1°C 5.3°F-14.8°C 58% 6.0 mph WNW9.7 kmh WNW 11.0 mph17.7 kmh 30.44 in1030.8 mb 0.00 in0.0 mm 0.00 in0.0 mm 0.00 in0.0 mm
05:00 PM 17.0°F-8.3°C 5.2°F-14.9°C 59% 3.0 mph WNW4.8 kmh WNW 11.0 mph17.7 kmh 30.45 in1031.2 mb 0.00 in0.0 mm 0.00 in0.0 mm 0.00 in0.0 mm
05:15 PM 16.6°F-8.6°C 5.2°F-14.9°C 60% 1.0 mph WNW1.6 kmh WNW 9.0 mph14.5 kmh 30.45 in1031.2 mb 0.00 in0.0 mm 0.00 in0.0 mm 0.00 in0.0 mm
05:30 PM 16.2°F-8.8°C 5.1°F-14.9°C 61% 1.0 mph WNW1.6 kmh WNW 9.0 mph14.5 kmh 30.45 in1031.2 mb 0.00 in0.0 mm 0.00 in0.0 mm 0.00 in0.0 mm
05:45 PM 15.7°F-9.1°C 5.0°F-15.0°C 62% 3.0 mph WNW4.8 kmh WNW 9.0 mph14.5 kmh 30.46 in1031.5 mb 0.00 in0.0 mm 0.00 in0.0 mm 0.00 in0.0 mm
06:00 PM 15.3°F-9.3°C 5.0°F-15.0°C 63% 2.0 mph W3.2 kmh W 9.0 mph14.5 kmh 30.46 in1031.5 mb 0.00 in0.0 mm 0.00 in0.0 mm 0.00 in0.0 mm
06:15 PM 15.0°F-9.4°C 5.0°F-15.0°C 64% 2.0 mph W3.2 kmh W 6.0 mph9.7 kmh 30.47 in1031.8 mb 0.00 in0.0 mm 0.00 in0.0 mm 0.00 in0.0 mm
06:30 PM 14.7°F-9.6°C 5.1°F-14.9°C 65% Calm Calm 7.0 mph11.3 kmh 30.47 in1031.8 mb 0.00 in0.0 mm 0.00 in0.0 mm 0.00 in0.0 mm
06:45 PM 14.5°F-9.7°C 4.9°F-15.1°C 65% 1.0 mph NW1.6 kmh NW 6.0 mph9.7 kmh 30.47 in1031.8 mb 0.00 in0.0 mm 0.00 in0.0 mm 0.00 in0.0 mm
07:00 PM 14.3°F-9.8°C 5.0°F-15.0°C 66% 1.0 mph WNW1.6 kmh WNW 8.0 mph12.9 kmh 30.47 in1031.8 mb 0.00 in0.0 mm 0.00 in0.0 mm 0.00 in0.0 mm
07:15 PM 14.1°F-9.9°C 4.9°F-15.1°C 66% 2.0 mph NW3.2 kmh NW 5.0 mph8.0 kmh 30.47 in1031.8 mb 0.00 in0.0 mm 0.00 in0.0 mm 0.00 in0.0 mm
07:30 PM 13.9°F-10.1°C 5.0°F-15.0°C 67% Calm Calm 6.0 mph9.7 kmh 30.48 in1032.2 mb 0.00 in0.0 mm 0.00 in0.0 mm 0.00 in0.0 mm
07:45 PM 13.7°F-10.2°C 4.8°F-15.1°C 67% 1.0 mph N1.6 kmh N 4.0 mph6.4 kmh 30.48 in1032.2 mb 0.00 in0.0 mm 0.00 in0.0 mm 0.00 in0.0 mm
08:00 PM 13.6°F-10.2°C 4.7°F-15.2°C 67% Calm Calm 6.0 mph9.7 kmh 30.48 in1032.2 mb 0.00 in0.0 mm 0.00 in0.0 mm 0.00 in0.0 mm
08:15 PM 13.4°F-10.3°C 4.8°F-15.1°C 68% 3.0 mph WNW4.8 kmh WNW 7.0 mph11.3 kmh 30.48 in1032.2 mb 0.00 in0.0 mm 0.00 in0.0 mm 0.00 in0.0 mm
08:30 PM 13.2°F-10.4°C 4.3°F-15.4°C 67% 4.0 mph WNW6.4 kmh WNW 7.0 mph11.3 kmh 30.48 in1032.2 mb 0.00 in0.0 mm 0.00 in0.0 mm 0.00 in0.0 mm
08:45 PM 13.2°F-10.4°C 4.6°F-15.2°C 68% 1.0 mph WNW1.6 kmh WNW 6.0 mph9.7 kmh 30.49 in1032.5 mb 0.00 in0.0 mm 0.00 in0.0 mm 0.00 in0.0 mm
09:00 PM 13.0°F-10.6°C 4.4°F-15.3°C 68% Calm Calm 6.0 mph9.7 kmh 30.48 in1032.2 mb 0.00 in0.0 mm 0.00 in0.0 mm 0.00 in0.0 mm
09:15 PM 13.0°F-10.6°C 4.4°F-15.3°C 68% Calm Calm 4.0 mph6.4 kmh 30.48 in1032.2 mb 0.00 in0.0 mm 0.00 in0.0 mm 0.00 in0.0 mm
09:30 PM 12.8°F-10.7°C 4.3°F-15.4°C 68% 1.0 mph NW1.6 kmh NW 5.0 mph8.0 kmh 30.48 in1032.2 mb 0.00 in0.0 mm 0.00 in0.0 mm 0.00 in0.0 mm
09:45 PM 12.7°F-10.7°C 4.5°F-15.3°C 69% Calm Calm 5.0 mph8.0 kmh 30.49 in1032.5 mb 0.00 in0.0 mm 0.00 in0.0 mm 0.00 in0.0 mm
10:00 PM 12.6°F-10.8°C 4.4°F-15.3°C 69% Calm Calm 5.0 mph8.0 kmh 30.48 in1032.2 mb 0.00 in0.0 mm 0.00 in0.0 mm 0.00 in0.0 mm
10:15 PM 12.5°F-10.8°C 4.3°F-15.4°C 69% Calm Calm 6.0 mph9.7 kmh 30.49 in1032.5 mb 0.00 in0.0 mm 0.00 in0.0 mm 0.00 in0.0 mm
10:30 PM 12.4°F-10.9°C 4.2°F-15.4°C 69% 1.0 mph NW1.6 kmh NW 6.0 mph9.7 kmh 30.48 in1032.2 mb 0.00 in0.0 mm 0.00 in0.0 mm 0.00 in0.0 mm
10:45 PM 12.3°F-10.9°C 4.1°F-15.5°C 69% Calm Calm 3.0 mph4.8 kmh 30.49 in1032.5 mb 0.00 in0.0 mm 0.00 in0.0 mm 0.00 in0.0 mm
11:00 PM 12.2°F-11.0°C 4.0°F-15.6°C 69% 2.0 mph NW3.2 kmh NW 5.0 mph8.0 kmh 30.49 in1032.5 mb 0.00 in0.0 mm 0.00 in0.0 mm 0.00 in0.0 mm
11:15 PM 12.1°F-11.1°C 4.2°F-15.4°C 70% Calm Calm 3.0 mph4.8 kmh 30.49 in1032.5 mb 0.00 in0.0 mm 0.00 in0.0 mm 0.00 in0.0 mm
11:30 PM 12.1°F-11.1°C 4.2°F-15.4°C 70% Calm Calm 3.0 mph4.8 kmh 30.48 in1032.2 mb 0.00 in0.0 mm 0.00 in0.0 mm 0.00 in0.0 mm
11:45 PM 12.0°F-11.1°C 4.7°F-15.2°C 72% Calm Calm -- 30.48 in1032.2 mb 0.00 in0.0 mm 0.00 in0.0 mm 0.00 in0.0 mm